Time;durP1;ratioP1;P1;durP2;ratioP2;P2;SDS_P1;SDS_P2;PMS_P1;PMS_P2;Temp;Humidity;BMP_temperature;BMP_pressure;BME280_temperature;BME280_humidity;BME280_pressure;Samples;Min_cycle;Max_cycle;Signal;HPM_P1;HPM_P2
2022/10/17 00:00:32;;;;;;;32.90;30.80;;;;;;;9.57;100.00;102012.56;5071688;28;20484;-51
2022/10/17 00:03:01;;;;;;;33.90;31.87;;;;;;;9.50;100.00;102016.84;5071434;28;20473;-52
2022/10/17 00:05:29;;;;;;;34.03;31.50;;;;;;;9.45;100.00;102011.19;5071607;28;20920;-50
2022/10/17 00:07:56;;;;;;;33.50;31.40;;;;;;;9.39;100.00;102022.47;5071211;28;20918;-50
2022/10/17 00:10:24;;;;;;;32.03;30.30;;;;;;;9.34;100.00;102028.28;5071743;28;20430;-51
2022/10/17 00:12:52;;;;;;;32.23;30.33;;;;;;;9.29;100.00;102024.38;5071255;28;20458;-51
2022/10/17 00:15:21;;;;;;;32.27;29.80;;;;;;;9.22;100.00;102016.22;5071602;28;20872;-51
2022/10/17 00:17:49;;;;;;;31.90;30.00;;;;;;;9.16;100.00;102006.19;5071014;28;20959;-49
2022/10/17 00:20:18;;;;;;;33.50;31.00;;;;;;;9.13;100.00;102003.84;5063505;28;20912;-50
2022/10/17 00:22:46;;;;;;;33.20;30.97;;;;;;;9.12;100.00;102018.13;5063573;28;20482;-50
2022/10/17 00:25:13;;;;;;;33.87;30.90;;;;;;;9.11;100.00;102019.13;5075737;28;20438;-54
2022/10/17 00:27:41;;;;;;;34.07;31.13;;;;;;;9.11;100.00;102021.78;5075030;28;20928;-52
2022/10/17 00:30:12;;;;;;;36.00;32.90;;;;;;;9.12;100.00;102011.97;5075475;28;20483;-52
2022/10/17 00:32:40;;;;;;;36.20;32.90;;;;;;;9.12;100.00;101999.50;5074973;28;20461;-54
2022/10/17 00:35:08;;;;;;;35.20;32.50;;;;;;;9.18;100.00;102004.22;5075544;28;20430;-49
2022/10/17 00:37:37;;;;;;;35.00;32.47;;;;;;;9.19;100.00;102005.03;5075018;28;20426;-49
2022/10/17 00:40:07;;;;;;;35.27;32.70;;;;;;;9.23;100.00;102003.72;5075354;28;20437;-49
2022/10/17 00:42:34;;;;;;;36.90;33.70;;;;;;;9.28;100.00;102004.94;5074952;28;20541;-49
2022/10/17 00:45:14;;;;;;;35.43;32.83;;;;;;;9.30;100.00;102002.09;5075155;28;20479;-51
2022/10/17 00:47:45;;;;;;;34.00;31.80;;;;;;;9.31;100.00;101995.81;5074842;28;20425;-49
2022/10/17 00:50:13;;;;;;;32.00;30.00;;;;;;;9.28;100.00;101993.47;5075263;28;20476;-51
2022/10/17 00:52:44;;;;;;;31.43;29.40;;;;;;;9.24;100.00;101989.44;5074799;28;20454;-50
2022/10/17 00:55:16;;;;;;;34.13;31.27;;;;;;;9.20;100.00;101983.59;5074885;28;20426;-48
2022/10/17 00:57:45;;;;;;;33.37;30.87;;;;;;;9.14;100.00;101986.88;5074342;28;20456;-52
2022/10/17 01:00:15;;;;;;;32.17;30.17;;;;;;;9.08;100.00;101982.16;5075074;28;20434;-48
2022/10/17 01:02:43;;;;;;;32.13;30.13;;;;;;;9.03;100.00;101976.50;5074485;28;21015;-52
2022/10/17 01:05:12;;;;;;;32.67;30.57;;;;;;;8.97;100.00;101985.09;5074978;28;21035;-47
2022/10/17 01:07:43;;;;;;;32.10;29.40;;;;;;;8.91;100.00;101993.69;5074206;28;20431;-48
2022/10/17 01:10:12;;;;;;;32.40;29.80;;;;;;;8.87;100.00;102002.97;5074539;28;20434;-49
2022/10/17 01:12:54;;;;;;;32.60;30.17;;;;;;;8.84;100.00;101993.47;5074543;28;20454;-49
2022/10/17 01:15:36;;;;;;;32.77;30.20;;;;;;;8.79;100.00;101997.59;5074782;28;20426;-47
2022/10/17 01:18:12;;;;;;;30.83;28.87;;;;;;;8.76;100.00;101992.59;5074064;28;20523;-49
2022/10/17 01:21:08;;;;;;;30.87;29.10;;;;;;;8.71;100.00;101990.41;5066005;28;20474;-52
2022/10/17 01:24:11;;;;;;;31.63;29.57;;;;;;;8.67;100.00;101998.84;5074367;28;21052;-47
2022/10/17 01:26:59;;;;;;;30.40;28.63;;;;;;;8.64;100.00;102009.78;5074451;28;20456;-47
2022/10/17 01:29:36;;;;;;;30.23;28.30;;;;;;;8.60;100.00;101997.78;5073989;28;20458;-52
2022/10/17 01:32:11;;;;;;;31.20;29.00;;;;;;;8.57;100.00;101988.28;5074001;28;20886;-52
2022/10/17 01:34:47;;;;;;;32.53;30.30;;;;;;;8.57;100.00;101987.47;5074352;28;20438;-48
2022/10/17 01:37:20;;;;;;;32.43;30.00;;;;;;;8.57;100.00;101995.44;5074097;28;20475;-49
2022/10/17 01:39:52;;;;;;;31.83;29.53;;;;;;;8.57;100.00;101985.63;5073677;28;20535;-49
2022/10/17 01:42:24;;;;;;;30.20;28.60;;;;;;;8.57;100.00;101982.16;5073789;28;20983;-50
2022/10/17 01:44:57;;;;;;;32.60;30.03;;;;;;;8.59;100.00;101991.63;5074183;28;20535;-50
2022/10/17 01:47:30;;;;;;;34.17;31.53;;;;;;;8.65;100.00;101979.53;5074064;28;20831;-48
2022/10/17 01:50:02;;;;;;;33.43;30.87;;;;;;;8.69;100.00;101979.06;5073713;28;20438;-52
2022/10/17 01:52:35;;;;;;;32.83;30.37;;;;;;;8.75;100.00;101988.28;5073885;28;20504;-48
2022/10/17 01:55:09;;;;;;;33.97;31.20;;;;;;;8.81;100.00;101985.81;5074003;28;20426;-48
2022/10/17 01:57:41;;;;;;;35.37;32.57;;;;;;;8.87;100.00;101989.66;5073466;28;20487;-53
2022/10/17 02:00:13;;;;;;;34.67;31.70;;;;;;;8.94;100.00;101990.72;5073726;28;20882;-48
2022/10/17 02:02:44;;;;;;;34.50;31.30;;;;;;;8.99;100.00;101983.09;5073594;28;20890;-49
2022/10/17 02:05:12;;;;;;;33.70;31.23;;;;;;;9.02;100.00;101980.13;5073839;28;20489;-52
2022/10/17 02:07:41;;;;;;;35.60;32.50;;;;;;;9.01;100.00;101964.34;5073218;28;20460;-52
2022/10/17 02:10:17;;;;;;;35.60;32.57;;;;;;;9.05;100.00;101966.53;5073472;28;20431;-48
2022/10/17 02:12:50;;;;;;;36.23;32.43;;;;;;;9.07;100.00;101958.41;5073127;28;20446;-49
2022/10/17 02:15:36;;;;;;;36.97;33.90;;;;;;;9.11;100.00;101957.91;5073478;28;20472;-54
2022/10/17 02:18:17;;;;;;;35.23;32.13;;;;;;;9.15;100.00;101961.94;5073050;28;20862;-53
2022/10/17 02:20:51;;;;;;;36.70;33.60;;;;;;;9.17;100.00;101962.59;5064886;28;20427;-50
2022/10/17 02:23:27;;;;;;;34.63;32.27;;;;;;;9.19;100.00;101957.13;5073111;28;20474;-49
2022/10/17 02:26:09;;;;;;;35.30;32.50;;;;;;;9.19;100.00;101954.47;5073427;28;20425;-52
2022/10/17 02:28:44;;;;;;;36.63;33.20;;;;;;;9.19;100.00;101942.00;5072769;28;21041;-52
2022/10/17 02:31:16;;;;;;;36.07;32.87;;;;;;;9.20;100.00;101937.53;5072855;28;20430;-48
2022/10/17 02:33:50;;;;;;;36.67;33.90;;;;;;;9.21;100.00;101933.84;5072964;28;20979;-48
2022/10/17 02:36:22;;;;;;;33.53;31.20;;;;;;;9.21;100.00;101941.84;5072986;28;20430;-51
2022/10/17 02:38:51;;;;;;;37.93;34.30;;;;;;;9.19;100.00;101943.84;5072627;28;20496;-47
2022/10/17 02:41:20;;;;;;;34.90;32.10;;;;;;;9.18;100.00;101940.34;5072707;28;20435;-54
2022/10/17 02:43:50;;;;;;;35.20;32.53;;;;;;;9.18;100.00;101950.97;5072702;28;20608;-48
2022/10/17 02:46:21;;;;;;;34.53;31.87;;;;;;;9.16;100.00;101946.81;5072207;28;20442;-54
2022/10/17 02:48:52;;;;;;;34.67;31.87;;;;;;;9.16;100.00;101944.16;5072416;28;20467;-52
2022/10/17 02:51:27;;;;;;;35.03;31.67;;;;;;;9.14;100.00;101944.28;5072521;28;20427;-53
2022/10/17 02:54:02;;;;;;;34.37;31.90;;;;;;;9.11;100.00;101939.28;5072756;28;20519;-50
2022/10/17 02:56:35;;;;;;;34.37;31.63;;;;;;;9.11;100.00;101936.63;5072475;28;20483;-50
2022/10/17 02:59:05;;;;;;;33.97;31.37;;;;;;;9.13;100.00;101934.66;5072137;28;20469;-50
2022/10/17 03:01:32;;;;;;;34.60;31.80;;;;;;;9.18;100.00;101932.34;5072468;28;20418;-52
2022/10/17 03:04:06;;;;;;;34.80;31.80;;;;;;;9.21;100.00;101929.38;5072394;28;20485;-48
2022/10/17 03:06:34;;;;;;;35.90;32.73;;;;;;;9.24;100.00;101930.88;5072476;28;20426;-49
2022/10/17 03:09:02;;;;;;;36.63;34.00;;;;;;;9.25;100.00;101936.06;5071830;28;20458;-51
2022/10/17 03:11:29;;;;;;;37.10;34.57;;;;;;;9.28;100.00;101930.41;5072311;28;20430;-50
2022/10/17 03:13:57;;;;;;;35.20;32.50;;;;;;;9.31;100.00;101934.56;5072422;28;20455;-52
2022/10/17 03:16:25;;;;;;;34.30;31.97;;;;;;;9.34;100.00;101934.25;5072423;28;20830;-50
2022/10/17 03:18:52;;;;;;;33.60;30.90;;;;;;;9.38;100.00;101928.44;5071730;28;20461;-49
2022/10/17 03:21:21;;;;;;;35.50;33.20;;;;;;;9.44;100.00;101930.47;5063465;28;20439;-51
2022/10/17 03:23:49;;;;;;;35.27;32.20;;;;;;;9.49;100.00;101943.31;5052251;28;20545;-51
2022/10/17 03:26:16;;;;;;;34.40;32.00;;;;;;;9.56;100.00;101943.50;5052328;28;20431;-47
2022/10/17 03:28:44;;;;;;;38.87;34.80;;;;;;;9.60;100.00;101944.84;5051826;28;20477;-51
2022/10/17 03:31:15;;;;;;;35.23;32.57;;;;;;;9.64;100.00;101932.88;5051683;28;20446;-49
2022/10/17 03:33:43;;;;;;;35.20;32.70;;;;;;;9.67;100.00;101916.56;5052019;28;20459;-49
2022/10/17 03:36:13;;;;;;;36.47;33.67;;;;;;;9.68;100.00;101911.06;5051871;28;20435;-48
2022/10/17 03:38:43;;;;;;;35.87;32.90;;;;;;;9.70;100.00;101910.94;5051753;28;20455;-53
2022/10/17 03:41:11;;;;;;;34.27;31.87;;;;;;;9.72;100.00;101916.91;5052068;28;20501;-49
2022/10/17 03:43:39;;;;;;;35.77;33.17;;;;;;;9.73;100.00;101914.09;5051895;28;20544;-47
2022/10/17 03:46:07;;;;;;;37.40;33.57;;;;;;;9.78;100.00;101902.94;5051835;28;20481;-51
2022/10/17 03:48:35;;;;;;;34.20;32.10;;;;;;;9.81;100.00;101903.47;5051236;28;20455;-53
2022/10/17 03:51:05;;;;;;;36.70;33.70;;;;;;;9.84;100.00;101910.28;5056952;28;20476;-51
2022/10/17 03:53:34;;;;;;;34.70;32.43;;;;;;;9.90;100.00;101906.97;5071659;28;20450;-49
2022/10/17 03:56:11;;;;;;;35.63;32.77;;;;;;;9.95;100.00;101896.63;5070326;28;20434;-48
2022/10/17 03:58:39;;;;;;;34.57;31.97;;;;;;;9.99;100.00;101890.84;5070308;28;20466;-51
2022/10/17 04:01:07;;;;;;;35.83;33.37;;;;;;;10.04;100.00;101890.31;5071293;28;20439;-47
2022/10/17 04:03:34;;;;;;;35.07;32.50;;;;;;;10.06;100.00;101880.34;5070520;28;20474;-50
2022/10/17 04:06:03;;;;;;;36.53;33.87;;;;;;;10.09;100.00;101884.50;5071692;28;20918;-50
2022/10/17 04:08:32;;;;;;;35.27;32.70;;;;;;;10.12;100.00;101881.53;5071293;28;20458;-54
2022/10/17 04:10:59;;;;;;;35.53;32.57;;;;;;;10.16;100.00;101889.03;5071272;28;20435;-50
2022/10/17 04:13:29;;;;;;;35.37;33.10;;;;;;;10.22;100.00;101880.38;5071336;28;20519;-49
2022/10/17 04:15:59;;;;;;;35.83;33.03;;;;;;;10.26;100.00;101881.72;5071726;28;20418;-54
2022/10/17 04:18:27;;;;;;;34.90;32.50;;;;;;;10.34;100.00;101879.03;5071105;28;20566;-52
2022/10/17 04:20:55;;;;;;;35.57;32.53;;;;;;;10.41;100.00;101876.53;5062676;28;20430;-49
2022/10/17 04:23:22;;;;;;;34.73;32.10;;;;;;;10.48;100.00;101861.53;5071224;28;20470;-48
2022/10/17 04:25:50;;;;;;;34.57;31.70;;;;;;;10.55;100.00;101862.53;5071455;28;20438;-51
2022/10/17 04:28:17;;;;;;;34.47;31.90;;;;;;;10.62;100.00;101850.19;5070863;28;20466;-48
2022/10/17 04:30:46;;;;;;;35.10;32.30;;;;;;;10.68;100.00;101854.84;5071194;28;20928;-49
2022/10/17 04:33:17;;;;;;;35.23;31.53;;;;;;;10.73;100.00;101849.81;5071115;28;20871;-48
2022/10/17 04:35:55;;;;;;;34.13;31.50;;;;;;;10.79;100.00;101850.97;5071380;28;20475;-51
2022/10/17 04:38:22;;;;;;;36.30;33.20;;;;;;;10.81;100.00;101840.97;5070716;28;20512;-47
2022/10/17 04:40:57;;;;;;;35.00;32.40;;;;;;;10.85;100.00;101834.25;5071250;28;20434;-54
2022/10/17 04:43:25;;;;;;;35.37;32.27;;;;;;;10.87;100.00;101826.94;5071011;28;20477;-54
2022/10/17 04:45:54;;;;;;;35.87;33.13;;;;;;;10.88;100.00;101829.44;5071309;28;20430;-49
2022/10/17 04:48:21;;;;;;;34.30;32.00;;;;;;;10.90;100.00;101830.06;5070741;28;20469;-49
2022/10/17 04:50:56;;;;;;;35.00;32.20;;;;;;;10.91;100.00;101831.75;5070914;28;20438;-52
2022/10/17 04:53:24;;;;;;;35.80;33.43;;;;;;;10.91;100.00;101831.75;5071194;28;20449;-49
2022/10/17 04:55:52;;;;;;;35.13;32.77;;;;;;;10.92;100.00;101833.41;5071063;28;20468;-46
2022/10/17 04:58:20;;;;;;;36.70;34.20;;;;;;;10.93;100.00;101834.25;5070515;28;20466;-52
2022/10/17 05:00:48;;;;;;;35.40;33.03;;;;;;;10.92;100.00;101829.91;5070840;28;20940;-51
2022/10/17 05:03:17;;;;;;;34.67;32.40;;;;;;;10.92;100.00;101832.59;5071003;28;20618;-52
2022/10/17 05:05:45;;;;;;;37.70;34.53;;;;;;;10.93;100.00;101829.72;5070950;28;20434;-49
2022/10/17 05:08:13;;;;;;;37.40;34.27;;;;;;;10.94;100.00;101830.56;5070609;28;20466;-48
2022/10/17 05:10:42;;;;;;;35.23;33.23;;;;;;;10.97;100.00;101824.88;5074428;28;20426;-48
2022/10/17 05:13:10;;;;;;;36.60;34.00;;;;;;;10.99;100.00;101823.69;5074361;28;20454;-50
2022/10/17 05:15:38;;;;;;;38.23;35.93;;;;;;;11.01;100.00;101821.72;5074554;28;20431;-51
2022/10/17 05:18:06;;;;;;;37.10;34.70;;;;;;;11.06;100.00;101830.03;5073933;28;20466;-50
2022/10/17 05:20:36;;;;;;;36.70;34.40;;;;;;;11.10;100.00;101820.69;5066153;28;20428;-54
2022/10/17 05:23:03;;;;;;;37.17;35.17;;;;;;;11.12;100.00;101817.81;5074187;28;20486;-53
2022/10/17 05:25:31;;;;;;;38.70;35.90;;;;;;;11.13;100.00;101822.16;5074400;28;21044;-50
2022/10/17 05:27:58;;;;;;;35.73;33.47;;;;;;;11.16;100.00;101831.66;5073884;28;20511;-49
2022/10/17 05:30:26;;;;;;;36.50;34.47;;;;;;;11.20;100.00;101823.09;5074218;28;20434;-50
2022/10/17 05:32:54;;;;;;;36.80;34.20;;;;;;;11.24;100.00;101828.94;5073876;28;20470;-50
2022/10/17 05:35:23;;;;;;;37.23;34.53;;;;;;;11.29;100.00;101822.06;5074377;28;20431;-49
2022/10/17 05:37:52;;;;;;;36.20;33.90;;;;;;;11.32;100.00;101812.91;5073752;28;20504;-54
2022/10/17 05:40:19;;;;;;;35.80;33.70;;;;;;;11.36;100.00;101817.69;5074179;28;20430;-53
2022/10/17 05:42:48;;;;;;;37.27;34.67;;;;;;;11.38;100.00;101802.31;5073788;28;20507;-50
2022/10/17 05:45:16;;;;;;;36.60;34.10;;;;;;;11.40;100.00;101791.47;5073824;28;20478;-54
2022/10/17 05:47:43;;;;;;;37.13;34.20;;;;;;;11.42;100.00;101792.13;5076589;22;20491;-44
2022/10/17 05:50:11;;;;;;;36.10;33.80;;;;;;;11.43;100.00;101789.28;5053017;28;20435;-45
2022/10/17 05:52:38;;;;;;;35.80;33.60;;;;;;;11.47;100.00;101792.41;5052659;28;20481;-43
2022/10/17 05:55:10;;;;;;;36.30;34.10;;;;;;;11.48;100.00;101786.91;5052950;28;20435;-46
2022/10/17 05:57:37;;;;;;;36.47;34.37;;;;;;;11.52;100.00;101790.06;5052314;28;20528;-45
2022/10/17 06:00:06;;;;;;;35.77;33.60;;;;;;;11.55;100.00;101787.03;5052683;28;20492;-44
2022/10/17 06:02:34;;;;;;;35.73;33.43;;;;;;;11.57;100.00;101782.34;5052731;28;20435;-45
2022/10/17 06:05:01;;;;;;;35.27;33.23;;;;;;;11.59;100.00;101781.16;5052658;28;20471;-45
2022/10/17 06:07:29;;;;;;;35.53;33.53;;;;;;;11.62;100.00;101782.63;5052179;28;20513;-42
2022/10/17 06:09:57;;;;;;;35.67;33.27;;;;;;;11.64;100.00;101770.78;5052577;28;20434;-44
2022/10/17 06:12:26;;;;;;;35.33;33.33;;;;;;;11.68;100.00;101773.91;5052116;28;20439;-43
2022/10/17 06:14:54;;;;;;;35.60;33.70;;;;;;;11.72;100.00;101775.25;5052975;28;20849;-47
2022/10/17 06:17:22;;;;;;;36.13;33.40;;;;;;;11.79;100.00;101783.38;5052433;28;20505;-44
2022/10/17 06:19:49;;;;;;;35.47;33.37;;;;;;;11.84;100.00;101779.16;5051812;28;20513;-45
2022/10/17 06:22:17;;;;;;;36.60;34.07;;;;;;;11.91;100.00;101792.66;5051567;28;20484;-52
2022/10/17 06:24:45;;;;;;;35.23;33.13;;;;;;;11.96;100.00;101780.41;5052779;28;20494;-44
2022/10/17 06:27:12;;;;;;;34.80;32.70;;;;;;;12.02;100.00;101782.34;5052679;28;20463;-44
2022/10/17 06:29:41;;;;;;;34.20;31.90;;;;;;;12.07;100.00;101789.81;5051871;28;20470;-43
2022/10/17 06:32:09;;;;;;;34.67;32.60;;;;;;;12.11;100.00;101794.63;5052574;28;20493;-44
2022/10/17 06:34:41;;;;;;;36.10;33.80;;;;;;;12.15;100.00;101784.41;5052314;28;20501;-44
2022/10/17 06:37:09;;;;;;;34.67;32.77;;;;;;;12.18;100.00;101794.75;5052139;28;20489;-47
2022/10/17 06:39:36;;;;;;;33.23;31.13;;;;;;;12.23;100.00;101800.38;5051857;28;20513;-46
2022/10/17 06:42:04;;;;;;;34.40;32.30;;;;;;;12.29;100.00;101801.47;5052324;28;20435;-45
2022/10/17 06:44:32;;;;;;;34.40;32.50;;;;;;;12.34;100.00;101802.59;5052174;28;20497;-46
2022/10/17 06:47:01;;;;;;;32.87;30.83;;;;;;;12.44;100.00;101797.00;5053711;28;109481;-44
2022/10/17 06:49:28;;;;;;;34.30;32.27;;;;;;;12.49;100.00;101800.78;5062335;28;20467;-48
2022/10/17 06:51:56;;;;;;;34.40;32.60;;;;;;;12.59;100.00;101800.50;5052539;28;20435;-43
2022/10/17 06:54:24;;;;;;;33.97;32.10;;;;;;;12.73;100.00;101808.53;5052818;28;21028;-46
2022/10/17 06:56:51;;;;;;;35.73;33.30;;;;;;;12.91;100.00;101807.31;5052802;28;20546;-45
2022/10/17 06:59:19;;;;;;;34.77;32.87;;;;;;;13.13;100.00;101809.09;5052139;28;20478;-44
2022/10/17 07:01:46;;;;;;;34.47;32.60;;;;;;;13.38;100.00;101804.25;5052492;28;20489;-43
2022/10/17 07:04:15;;;;;;;34.30;32.30;;;;;;;13.61;100.00;101811.09;5052398;28;20939;-44
2022/10/17 07:06:43;;;;;;;34.43;32.60;;;;;;;13.87;100.00;101815.88;5052560;28;20486;-44
2022/10/17 07:09:11;;;;;;;36.13;34.23;;;;;;;14.04;100.00;101805.69;5052103;28;20859;-48
2022/10/17 07:11:39;;;;;;;36.23;34.27;;;;;;;14.27;100.00;101792.91;5052290;28;20432;-43
2022/10/17 07:14:06;;;;;;;34.27;32.33;;;;;;;14.35;100.00;101792.78;5052605;28;20439;-45
2022/10/17 07:16:34;;;;;;;33.40;31.43;;;;;;;14.37;100.00;101790.72;5052384;28;20447;-47
2022/10/17 07:19:02;;;;;;;34.60;32.70;;;;;;;14.46;100.00;101800.28;5051791;28;20485;-44
2022/10/17 07:21:31;;;;;;;33.80;32.10;;;;;;;14.59;100.00;101791.50;5051884;28;20892;-48
2022/10/17 07:24:06;;;;;;;35.50;33.40;;;;;;;14.73;100.00;101801.28;5052390;28;20435;-46
2022/10/17 07:26:33;;;;;;;35.97;33.77;;;;;;;14.79;100.00;101801.31;5051946;28;20990;-45
2022/10/17 07:29:01;;;;;;;35.10;33.30;;;;;;;14.88;100.00;101799.28;5051798;28;20447;-45
2022/10/17 07:31:29;;;;;;;36.73;34.53;;;;;;;14.87;100.00;101790.41;5051578;28;20446;-44
2022/10/17 07:33:58;;;;;;;35.70;33.70;;;;;;;14.95;100.00;101787.56;5052242;28;20439;-44
2022/10/17 07:36:26;;;;;;;36.27;34.23;;;;;;;15.00;100.00;101786.13;5051940;28;20432;-44
2022/10/17 07:38:55;;;;;;;37.67;35.50;;;;;;;15.02;100.00;101786.78;5051600;28;20509;-44
2022/10/17 07:41:23;;;;;;;34.20;32.50;;;;;;;15.01;100.00;101780.56;5051768;28;20516;-47
2022/10/17 07:43:50;;;;;;;35.30;33.50;;;;;;;15.05;100.00;101772.94;5051829;28;20431;-44
2022/10/17 07:46:18;;;;;;;35.87;33.70;;;;;;;15.04;100.00;101768.59;5051877;28;20470;-44
2022/10/17 07:48:46;;;;;;;34.27;32.47;;;;;;;15.06;100.00;101769.22;5051524;28;20827;-44
2022/10/17 07:51:13;;;;;;;34.30;32.60;;;;;;;15.10;100.00;101786.59;5051629;28;20496;-44
2022/10/17 07:53:42;;;;;;;35.03;33.33;;;;;;;15.09;100.00;101785.75;5051722;28;20439;-44
2022/10/17 07:56:17;;;;;;;35.80;34.00;;;;;;;15.01;100.00;101767.13;5051744;28;20423;-44
2022/10/17 07:58:44;;;;;;;35.10;33.40;;;;;;;14.93;100.00;101772.69;5051204;28;20459;-44
2022/10/17 08:01:13;;;;;;;35.53;33.83;;;;;;;14.89;100.00;101774.94;5051633;28;20496;-43
2022/10/17 08:03:44;;;;;;;36.00;34.17;;;;;;;14.82;100.00;101760.66;5051882;28;20439;-44
2022/10/17 08:06:12;;;;;;;35.37;33.50;;;;;;;14.79;100.00;101762.91;5051878;28;20471;-45
2022/10/17 08:08:40;;;;;;;35.53;33.63;;;;;;;14.78;100.00;101753.19;5051092;28;20474;-46
2022/10/17 08:11:10;;;;;;;34.57;32.77;;;;;;;14.82;100.00;101749.91;5051329;28;20493;-44
2022/10/17 08:13:40;;;;;;;35.67;33.87;;;;;;;14.85;100.00;101751.34;5051942;28;20435;-45
2022/10/17 08:16:10;;;;;;;35.53;33.83;;;;;;;14.84;100.00;101747.84;5051798;28;20431;-44
2022/10/17 08:18:40;;;;;;;35.83;34.13;;;;;;;14.94;100.00;101756.38;5051087;28;20469;-43
2022/10/17 08:21:08;;;;;;;35.67;33.87;;;;;;;15.06;100.00;101758.47;5051303;28;20431;-46
2022/10/17 08:23:36;;;;;;;36.47;34.53;;;;;;;15.12;100.00;101758.50;5051425;28;20419;-44
2022/10/17 08:26:07;;;;;;;36.27;33.63;;;;;;;15.19;100.00;101774.63;5051516;28;20467;-46
2022/10/17 08:28:35;;;;;;;36.00;34.13;;;;;;;15.24;100.00;101780.22;5050832;28;21235;-47
2022/10/17 08:31:06;;;;;;;34.80;33.10;;;;;;;15.30;100.00;101782.09;5051567;28;20462;-43
2022/10/17 08:33:34;;;;;;;35.37;33.57;;;;;;;15.32;100.00;101774.69;5051445;28;21009;-46
2022/10/17 08:36:03;;;;;;;36.70;34.80;;;;;;;15.35;100.00;101756.28;5051525;28;20839;-44
2022/10/17 08:38:32;;;;;;;35.43;33.57;;;;;;;15.40;100.00;101745.75;5051073;28;20521;-45
2022/10/17 08:41:05;;;;;;;35.67;33.90;;;;;;;15.58;100.00;101742.50;5051272;28;20420;-44
2022/10/17 08:43:49;;;;;;;35.37;33.30;;;;;;;15.64;100.00;101740.84;5051705;28;20497;-44
2022/10/17 08:46:19;;;;;;;35.97;34.13;;;;;;;15.73;100.00;101729.72;5055194;28;20535;-44
2022/10/17 08:48:49;;;;;;;35.30;33.50;;;;;;;15.78;100.00;101716.47;5055364;28;20856;-43
2022/10/17 08:51:21;;;;;;;36.13;34.13;;;;;;;15.86;100.00;101713.53;5055115;28;21008;-44
2022/10/17 08:53:56;;;;;;;34.80;33.00;;;;;;;15.91;100.00;101705.72;5055197;28;20496;-44
2022/10/17 08:56:26;;;;;;;36.30;34.07;;;;;;;15.95;100.00;101698.84;5055222;28;20468;-43
2022/10/17 08:59:16;;;;;;;35.40;33.70;;;;;;;15.98;100.00;101709.19;5054542;28;20551;-45
2022/10/17 09:01:50;;;;;;;35.37;33.67;;;;;;;16.01;100.00;101713.31;5055087;28;20420;-45
2022/10/17 09:04:51;;;;;;;34.70;32.93;;;;;;;16.01;100.00;101719.53;5055206;28;20472;-43
2022/10/17 09:07:25;;;;;;;34.30;32.30;;;;;;;16.00;100.00;101715.22;5054815;28;20474;-48
2022/10/17 09:10:03;;;;;;;35.50;33.80;;;;;;;16.04;100.00;101712.91;5054565;28;20450;-44
2022/10/17 09:12:40;;;;;;;35.43;33.27;;;;;;;16.04;100.00;101704.84;5054770;28;20481;-44
2022/10/17 09:15:28;;;;;;;34.73;33.03;;;;;;;16.05;100.00;101701.97;5055005;28;20445;-46
2022/10/17 09:18:03;;;;;;;34.67;32.97;;;;;;;16.14;100.00;101712.50;5054156;28;20467;-45
2022/10/17 09:20:33;;;;;;;35.70;33.90;;;;;;;16.26;100.00;101711.66;5054599;28;20489;-43
2022/10/17 09:23:04;;;;;;;35.77;33.97;;;;;;;16.32;100.00;101705.41;5054340;28;20431;-43
2022/10/17 09:25:42;;;;;;;35.33;33.50;;;;;;;16.45;100.00;101693.78;5054427;28;20500;-44
2022/10/17 09:28:17;;;;;;;34.73;33.00;;;;;;;16.63;100.00;101696.66;5053850;28;20466;-44
2022/10/17 09:30:49;;;;;;;35.80;33.87;;;;;;;16.93;100.00;101699.63;5054143;28;20981;-44
2022/10/17 09:33:20;;;;;;;36.83;34.87;;;;;;;17.14;100.00;101685.84;5054358;28;20465;-45
2022/10/17 09:36:13;;;;;;;35.87;34.10;;;;;;;17.30;100.00;101690.69;5054658;28;20438;-43
2022/10/17 09:38:42;;;;;;;36.83;34.47;;;;;;;17.38;100.00;101682.34;5053845;28;20477;-43
2022/10/17 09:41:19;;;;;;;35.73;33.93;;;;;;;17.54;100.00;101692.63;5054467;28;20434;-45
2022/10/17 09:44:21;;;;;;;38.00;35.90;;;;;;;17.72;100.00;101696.44;5054351;28;20455;-45
2022/10/17 09:47:02;;;;;;;36.83;34.50;;;;;;;17.82;100.00;101689.50;5053964;28;20534;-42
2022/10/17 09:49:34;;;;;;;36.10;34.20;;;;;;;17.97;100.00;101692.69;5054145;28;20466;-48
2022/10/17 09:52:05;;;;;;;37.00;35.10;;;;;;;18.00;100.00;101697.66;5054196;28;20454;-44
2022/10/17 09:54:42;;;;;;;36.97;34.80;;;;;;;18.14;100.00;101699.16;5054377;28;20439;-45
2022/10/17 09:57:11;;;;;;;36.57;34.73;;;;;;;18.23;100.00;101692.41;5053309;28;20489;-48
2022/10/17 09:59:41;;;;;;;36.00;34.03;;;;;;;18.46;100.00;101694.44;5053724;28;20516;-44
2022/10/17 10:02:14;;;;;;;35.87;33.87;;;;;;;18.58;100.00;101695.38;5054476;28;20431;-45
2022/10/17 10:04:55;;;;;;;37.03;34.63;;;;;;;18.78;100.00;101703.25;5054309;28;20839;-45
2022/10/17 10:07:35;;;;;;;36.17;34.27;;;;;;;18.83;100.00;101705.25;5053829;28;20848;-46
2022/10/17 10:10:05;;;;;;;35.90;34.10;;;;;;;18.78;100.00;101698.69;5054785;28;20442;-46
2022/10/17 10:12:35;;;;;;;36.40;34.47;;;;;;;18.80;100.00;101695.72;5054160;28;20788;-45
2022/10/17 10:15:33;;;;;;;37.33;35.43;;;;;;;18.87;100.00;101701.06;5054226;28;20442;-48
2022/10/17 10:18:01;;;;;;;36.93;35.13;;;;;;;18.88;100.00;101702.69;5053470;28;20475;-46
2022/10/17 10:20:34;;;;;;;35.93;34.13;;;;;;;18.92;100.00;101704.72;5053493;28;20427;-46
2022/10/17 10:23:14;;;;;;;35.67;33.70;;;;;;;19.00;100.00;101714.38;5053795;28;20851;-46
2022/10/17 10:25:56;;;;;;;35.73;33.73;;;;;;;19.06;100.00;101714.28;5054087;28;20427;-44
2022/10/17 10:28:27;;;;;;;34.70;33.10;;;;;;;19.18;100.00;101700.81;5053428;28;20458;-45
2022/10/17 10:30:57;;;;;;;35.53;33.70;;;;;;;19.21;100.00;101700.34;5053519;28;20427;-45
2022/10/17 10:33:27;;;;;;;35.77;34.17;;;;;;;19.23;100.00;101698.28;5053603;28;20490;-44
2022/10/17 10:36:00;;;;;;;36.13;33.87;;;;;;;19.30;100.00;101694.41;5053924;28;20472;-46
2022/10/17 10:38:28;;;;;;;35.83;34.10;;;;;;;19.40;100.00;101703.84;5053239;28;20463;-46
2022/10/17 10:41:01;;;;;;;35.07;33.37;;;;;;;19.56;100.00;101704.00;5053531;28;20430;-43
2022/10/17 10:43:35;;;;;;;35.30;33.50;;;;;;;19.84;100.00;101701.47;5053400;28;20993;-45
2022/10/17 10:46:05;;;;;;;33.60;31.90;;;;;;;19.93;100.00;101703.81;5053663;28;20427;-46
2022/10/17 10:48:35;;;;;;;34.90;33.27;;;;;;;20.19;100.00;101700.66;5052514;28;20593;-45
2022/10/17 10:51:11;;;;;;;34.47;32.90;;;;;;;20.16;100.00;101696.50;5053291;28;20427;-44
2022/10/17 10:53:46;;;;;;;34.63;32.70;;;;;;;20.21;100.00;101709.34;5053031;28;20484;-43
2022/10/17 10:56:16;;;;;;;36.47;34.60;;;;;;;20.21;100.00;101709.34;5053486;28;20426;-44
2022/10/17 10:58:54;;;;;;;33.83;32.33;;;;;;;20.24;100.00;101715.13;5052824;28;20983;-44
2022/10/17 11:01:30;;;;;;;34.17;32.67;;;;;;;20.24;100.00;101714.31;5053248;28;20430;-44
2022/10/17 11:04:08;;;;;;;34.63;32.63;;;;;;;20.33;100.00;101721.88;5052940;28;20859;-46
2022/10/17 11:06:40;;;;;;;33.80;32.40;;;;;;;20.42;100.00;101720.44;5052559;28;20492;-46
2022/10/17 11:09:26;;;;;;;34.90;33.10;;;;;;;20.57;100.00;101721.81;5052560;28;20462;-44
2022/10/17 11:12:05;;;;;;;33.50;31.80;;;;;;;20.55;100.00;101730.19;5052751;28;20459;-45
2022/10/17 11:14:43;;;;;;;34.17;32.30;;;;;;;20.41;100.00;101747.75;5052656;28;20439;-46
2022/10/17 11:17:22;;;;;;;32.47;30.93;;;;;;;20.34;100.00;101739.75;5052799;28;20508;-43
2022/10/17 11:19:57;;;;;;;31.47;30.07;;;;;;;20.19;100.00;101747.50;5052058;28;20451;-47
2022/10/17 11:22:30;;;;;;;33.73;31.90;;;;;;;20.14;100.00;101736.56;5052361;28;20834;-43